Strona główna
METAR-TAF:

METAR-TAF

Lotnisko :

Port lotniczy Bahrajn

Bahrajn, Bahrajn

Szerokość geograficzna: 26-16N, Długość geograficzna: 050-39E, wysokość: 2 m

Aktualna obserwacja pogody

Raport powstał 8 minut temu, godzina 12:30 UTC
Wiatr 9 kt od północ, zmienny między północny zachód i północno-północny wschód
Temperatura 33°C
Wilgotność 56%
Ciśnienie 1012 hPa
Widzialność: 8000 m

METAR: OBBI 161230Z 35009KT 310V020 8000 33/23 Q1012 NOSIG

czas: 15:38 (12:38 UTC)

Prognoza

Raport powstał 1 godzina i 38 minut temu, godzina 11:00 UTC
Prognoza ważna od 16 godzina 12 UTC do 17 godzina 18 UTC
Wiatr 10 kt od północ
Widzialność: 7000 m
Stopniowe zmiany
od 16 godzina 18 UTC do 16 godzina 20 UTC
Wiatr 5 kt z kierunków zmiennych
Mało chmury na wysokości 3000 ft
Stopniowe zmiany
od 17 godzina 09 UTC do 17 godzina 11 UTC
Wiatr 10 kt od wschodnio-północny wschód

TAF: OBBI 161100Z 1612/1718 35010KT 7000 NSC BECMG 1618/1620 VRB05KT FEW030 BECMG 1709/1711 07010KT

Obserwacja i prognoza pogody dla ponad 4000 lotnisk (raport METAR i TAF).

Dostępne stacje oznaczono żółtymi i czerwonymi punktami na mapie.

Najedź kursorem aby zobaczyć nazwę stacji.

Kliknij aby zobaczyć obserwacje i prognozy pogody.

Aby zmienić mapę: kliknij na zielony przycisk z czarnym krzyżykiem, aby powiększyć; na zielony przycisk z myślnikiem, aby pomniejszyć; na zielone strzałki, aby przejść do map sąsiednich.


METAR-TAF: